Stiens, Netherlands
Current Conditions -  °F | °C
As of 9:25 AM on Sunday 23 Nov 2014 (Local Time) from EHLW Reporting Station
Haze Haze  
Wind Chill: 45°   Ceiling: 2000
Heat Index: 48°   Visibility: 4mi
Dew Point: 46°   Wind: 7mph
Humidity: 93%   Direction: 160°SSE
Pressure: 30"   Gusts: NA
Location:  53.26°N, 5.76°E
Report Text: EHLW 230825Z AUTO 16006KT 6000 BR OVC020 09/08 Q1016 WHT
Loading
Personal Weather Stations






























Interactive Weather Map New forecast layout! Learn more

10-Day Weather Forecast

Advertisements
Track Severe Weather on mobile